Time;durP1;ratioP1;P1;durP2;ratioP2;P2;SDS_P1;SDS_P2;PMS_P1;PMS_P2;Temp;Humidity;BMP_temperature;BMP_pressure;BME280_temperature;BME280_humidity;BME280_pressure;Samples;Min_cycle;Max_cycle;Signal;HPM_P1;HPM_P2
2022/05/27 00:00:45;;;;;;;5.75;1.00;;;15.50;99.90;;;;;;4953074;29;20046;-76
2022/05/27 00:03:12;;;;;;;5.72;1.02;;;15.50;99.90;;;;;;4948712;28;20050;-76
2022/05/27 00:05:38;;;;;;;6.20;0.88;;;15.40;99.90;;;;;;4953308;28;20042;-77
2022/05/27 00:08:04;;;;;;;6.45;1.48;;;15.40;99.90;;;;;;4950853;28;20036;-79
2022/05/27 00:10:30;;;;;;;6.30;1.27;;;15.40;99.90;;;;;;4953789;29;20106;-76
2022/05/27 00:12:55;;;;;;;6.97;1.45;;;15.40;99.90;;;;;;4951495;28;20114;-77
2022/05/27 00:15:21;;;;;;;7.97;0.98;;;15.40;99.90;;;;;;4953014;29;20384;-77
2022/05/27 00:17:46;;;;;;;3.58;1.05;;;15.40;99.90;;;;;;4954810;28;20035;-77
2022/05/27 00:20:13;;;;;;;6.47;1.02;;;15.40;99.90;;;;;;4949839;29;20027;-76
2022/05/27 00:22:38;;;;;;;7.15;1.08;;;15.40;99.90;;;;;;4948300;28;20039;-76
2022/05/27 00:25:04;;;;;;;8.55;1.48;;;15.40;99.90;;;;;;4951927;29;20480;-77
2022/05/27 00:27:30;;;;;;;4.65;1.23;;;15.30;99.90;;;;;;4951513;29;20035;-77
2022/05/27 00:29:55;;;;;;;6.43;1.23;;;15.40;99.90;;;;;;4949513;28;20098;-77
2022/05/27 00:32:21;;;;;;;9.55;1.23;;;15.40;99.90;;;;;;4933550;29;20030;-77
2022/05/27 00:34:47;;;;;;;9.43;1.88;;;15.40;99.90;;;;;;4949678;28;20035;-76
2022/05/27 00:37:14;;;;;;;7.63;1.00;;;15.40;99.90;;;;;;4951133;28;20110;-77
2022/05/27 00:39:40;;;;;;;7.15;1.27;;;15.30;99.90;;;;;;4953441;29;20063;-77
2022/05/27 00:42:06;;;;;;;13.57;1.90;;;15.30;99.90;;;;;;4952530;29;20487;-77
2022/05/27 00:44:32;;;;;;;10.05;1.67;;;15.20;99.90;;;;;;4950951;29;20033;-77
2022/05/27 00:47:04;;;;;;;5.85;1.35;;;15.30;99.90;;;;;;4949656;28;20027;-77
2022/05/27 00:49:31;;;;;;;6.68;1.70;;;15.30;99.90;;;;;;4948695;29;20052;-77
2022/05/27 00:52:08;;;;;;;7.07;1.38;;;15.30;99.90;;;;;;4949494;28;20031;-76
2022/05/27 00:54:34;;;;;;;9.60;2.10;;;15.30;99.90;;;;;;4949316;29;20027;-77
2022/05/27 00:57:22;;;;;;;6.97;1.23;;;15.30;99.90;;;;;;4951078;29;20519;-76
2022/05/27 01:00:04;;;;;;;8.95;1.63;;;15.30;99.90;;;;;;4947858;29;20024;-77
2022/05/27 01:02:30;;;;;;;8.70;1.50;;;15.30;99.90;;;;;;4949098;28;20130;-77
2022/05/27 01:04:58;;;;;;;9.07;1.88;;;15.30;99.90;;;;;;4952453;28;20215;-76
2022/05/27 01:07:24;;;;;;;13.02;1.98;;;15.30;99.90;;;;;;4936503;29;20035;-77
2022/05/27 01:09:50;;;;;;;9.98;2.03;;;15.20;99.90;;;;;;4950352;29;20372;-77
2022/05/27 01:13:01;;;;;;;11.95;2.55;;;15.20;99.90;;;;;;4950743;29;20027;-76
2022/05/27 01:15:51;;;;;;;9.02;2.05;;;15.20;99.90;;;;;;4948734;29;20038;-77
2022/05/27 01:21:30;;;;;;;8.93;1.42;;;14.90;99.90;;;;;;4949418;29;20496;-76
2022/05/27 01:23:58;;;;;;;8.15;0.88;;;14.80;99.90;;;;;;4945711;29;20043;-76
2022/05/27 01:26:53;;;;;;;4.65;0.70;;;14.40;99.90;;;;;;4949110;28;20070;-77
2022/05/27 01:30:00;;;;;;;3.53;0.50;;;14.00;99.90;;;;;;4950674;28;20391;-77
2022/05/27 01:33:01;;;;;;;9.35;1.15;;;13.60;99.90;;;;;;4946014;29;20483;-76
2022/05/27 01:36:01;;;;;;;5.47;0.75;;;13.40;99.90;;;;;;4950116;29;20027;-76
2022/05/27 01:38:36;;;;;;;5.78;0.90;;;13.20;99.90;;;;;;4919396;29;20036;-76
2022/05/27 01:41:42;;;;;;;4.55;0.82;;;13.10;99.90;;;;;;4950817;29;20050;-76
2022/05/27 01:44:26;;;;;;;4.38;1.13;;;13.00;99.90;;;;;;4942487;29;20051;-76
2022/05/27 01:46:52;;;;;;;5.70;1.05;;;13.00;99.90;;;;;;4941831;28;20066;-76
2022/05/27 01:49:37;;;;;;;5.03;0.73;;;12.90;99.90;;;;;;4949133;29;20058;-76
2022/05/27 01:52:41;;;;;;;5.43;0.70;;;13.00;99.90;;;;;;4946654;29;20506;-76
2022/05/27 01:55:27;;;;;;;5.10;0.95;;;13.00;99.90;;;;;;4952599;29;20075;-76
2022/05/27 01:58:23;;;;;;;3.08;0.80;;;13.00;99.90;;;;;;4938492;29;20059;-76
2022/05/27 02:00:49;;;;;;;4.28;0.93;;;13.00;99.90;;;;;;4947574;28;20043;-76
2022/05/27 02:03:39;;;;;;;3.90;0.90;;;13.00;99.90;;;;;;4950486;29;20090;-76
2022/05/27 02:06:17;;;;;;;4.93;0.80;;;13.00;99.90;;;;;;4945060;29;20043;-77
2022/05/27 02:08:52;;;;;;;5.20;1.35;;;13.00;99.90;;;;;;4941403;29;20068;-76
2022/05/27 02:11:20;;;;;;;4.20;1.17;;;13.00;99.90;;;;;;4950603;29;20034;-76
2022/05/27 02:13:53;;;;;;;3.33;0.90;;;13.00;99.90;;;;;;4945435;28;20047;-76
2022/05/27 02:16:31;;;;;;;7.22;1.25;;;13.10;99.90;;;;;;4950796;28;20023;-76
2022/05/27 02:19:19;;;;;;;5.97;1.38;;;13.10;99.90;;;;;;4943688;29;20066;-76
2022/05/27 02:21:50;;;;;;;3.42;1.65;;;13.10;99.90;;;;;;4953291;29;20023;-76
2022/05/27 02:24:39;;;;;;;3.75;1.27;;;13.10;99.90;;;;;;4951861;28;20081;-76
2022/05/27 02:27:10;;;;;;;8.13;1.45;;;13.10;99.90;;;;;;4943564;29;20039;-76
2022/05/27 02:29:36;;;;;;;5.85;1.50;;;13.10;99.90;;;;;;4953947;28;20035;-76
2022/05/27 02:32:17;;;;;;;6.85;1.90;;;13.10;99.90;;;;;;4951516;29;20062;-76
2022/05/27 02:35:07;;;;;;;4.82;1.45;;;13.10;99.90;;;;;;4948601;29;20070;-76
2022/05/27 02:37:37;;;;;;;8.75;1.75;;;13.10;99.90;;;;;;4953808;29;20119;-75
2022/05/27 02:40:11;;;;;;;7.72;1.92;;;13.10;99.90;;;;;;4952870;28;20027;-76
2022/05/27 02:42:51;;;;;;;6.72;2.08;;;13.10;99.90;;;;;;4953093;28;20035;-76
2022/05/27 02:45:26;;;;;;;7.22;2.80;;;13.10;99.90;;;;;;4951131;29;20031;-76
2022/05/27 02:48:22;;;;;;;10.55;3.13;;;13.10;99.90;;;;;;4953212;29;20436;-76
2022/05/27 02:50:57;;;;;;;10.57;3.83;;;13.10;99.90;;;;;;4947125;29;20051;-76
2022/05/27 02:53:33;;;;;;;10.65;3.83;;;13.10;99.90;;;;;;4951150;29;20383;-76
2022/05/27 02:56:14;;;;;;;9.70;3.35;;;13.10;99.90;;;;;;4953596;29;20074;-76
2022/05/27 02:58:39;;;;;;;7.43;3.25;;;13.20;99.90;;;;;;4946841;29;20035;-76
2022/05/27 03:01:05;;;;;;;8.30;3.22;;;13.20;99.90;;;;;;4949153;28;20046;-76
2022/05/27 03:03:31;;;;;;;8.30;3.60;;;13.10;99.90;;;;;;4952848;29;20047;-76
2022/05/27 03:06:16;;;;;;;6.93;3.33;;;13.20;99.90;;;;;;4949893;29;20085;-76
2022/05/27 03:09:11;;;;;;;10.88;2.95;;;13.20;99.90;;;;;;4955422;28;20114;-76
2022/05/27 03:11:43;;;;;;;6.93;3.20;;;13.20;99.90;;;;;;4951978;28;20038;-76
2022/05/27 03:14:14;;;;;;;11.63;4.03;;;13.20;99.90;;;;;;4944406;29;20050;-76
2022/05/27 03:16:59;;;;;;;10.52;2.88;;;13.10;99.90;;;;;;4947985;29;20035;-76
2022/05/27 03:20:02;;;;;;;11.63;4.05;;;13.10;99.90;;;;;;4949842;29;20065;-76
2022/05/27 03:22:42;;;;;;;12.23;4.25;;;13.10;99.90;;;;;;4949354;28;20031;-76
2022/05/27 03:25:51;;;;;;;9.82;4.38;;;13.10;99.90;;;;;;4953337;29;20096;-76
2022/05/27 03:28:57;;;;;;;13.35;4.25;;;13.10;99.90;;;;;;4952769;29;20051;-76
2022/05/27 03:31:36;;;;;;;9.07;4.60;;;13.10;99.90;;;;;;4945840;28;20460;-76
2022/05/27 03:34:12;;;;;;;12.30;5.05;;;13.10;99.90;;;;;;4952726;29;20039;-76
2022/05/27 03:37:10;;;;;;;10.77;5.20;;;13.10;99.90;;;;;;4946386;29;20403;-76
2022/05/27 03:39:45;;;;;;;14.27;6.75;;;13.10;99.90;;;;;;4953266;29;20039;-76
2022/05/27 03:42:11;;;;;;;18.45;5.68;;;13.10;99.90;;;;;;4947828;28;20047;-76
2022/05/27 03:44:37;;;;;;;12.93;5.97;;;13.20;99.90;;;;;;4937981;28;20036;-76
2022/05/27 03:47:04;;;;;;;10.88;6.35;;;13.10;99.90;;;;;;4954053;28;20098;-77
2022/05/27 03:49:29;;;;;;;14.27;5.68;;;13.10;99.90;;;;;;4953276;29;20027;-76
2022/05/27 03:52:06;;;;;;;18.48;6.70;;;13.10;99.90;;;;;;4945653;28;20376;-76
2022/05/27 03:54:32;;;;;;;23.58;6.95;;;13.10;99.90;;;;;;4949364;28;20035;-76
2022/05/27 03:56:58;;;;;;;17.02;6.53;;;13.00;99.90;;;;;;4937160;29;20090;-76
2022/05/27 03:59:24;;;;;;;17.02;6.72;;;13.00;99.90;;;;;;4942217;28;20023;-76
2022/05/27 04:01:53;;;;;;;18.35;8.10;;;13.00;99.90;;;;;;4948420;28;20110;-76
2022/05/27 04:04:22;;;;;;;19.92;6.20;;;13.00;99.90;;;;;;4950879;28;20392;-76
2022/05/27 04:06:48;;;;;;;18.58;6.85;;;13.00;99.90;;;;;;4946259;29;20387;-77
2022/05/27 04:09:16;;;;;;;19.52;7.22;;;13.00;99.90;;;;;;4952526;28;20039;-77
2022/05/27 04:11:42;;;;;;;27.13;7.38;;;13.10;99.90;;;;;;4946438;29;20033;-76
2022/05/27 04:14:07;;;;;;;18.67;5.72;;;13.10;99.90;;;;;;4949057;28;20503;-77
2022/05/27 04:16:33;;;;;;;20.50;6.80;;;13.10;99.90;;;;;;4953863;29;20162;-75
2022/05/27 04:18:59;;;;;;;26.17;7.28;;;13.10;99.90;;;;;;4953340;28;20444;-76
2022/05/27 04:21:24;;;;;;;19.95;6.10;;;13.10;99.90;;;;;;4945782;28;20090;-76
2022/05/27 04:23:51;;;;;;;25.58;7.20;;;13.10;99.90;;;;;;4953310;29;20554;-76
2022/05/27 04:26:17;;;;;;;24.25;7.00;;;13.10;99.90;;;;;;4946426;29;20031;-76
2022/05/27 04:28:44;;;;;;;19.13;6.18;;;13.10;99.90;;;;;;4941615;28;20044;-76
2022/05/27 04:31:10;;;;;;;20.73;6.43;;;13.20;99.90;;;;;;4946609;29;20031;-76
2022/05/27 04:33:36;;;;;;;21.75;7.28;;;13.20;99.90;;;;;;4951460;28;20043;-76
2022/05/27 04:36:04;;;;;;;19.25;7.63;;;13.30;99.90;;;;;;4947352;29;20049;-76
2022/05/27 04:38:30;;;;;;;19.02;7.00;;;13.30;99.90;;;;;;4947148;28;20031;-76
2022/05/27 04:40:55;;;;;;;22.58;8.18;;;13.30;99.90;;;;;;4947528;29;20031;-77
2022/05/27 04:43:22;;;;;;;19.83;6.88;;;13.40;99.90;;;;;;4942101;29;20047;-76
2022/05/27 04:45:47;;;;;;;21.70;8.15;;;13.40;99.90;;;;;;4948142;28;20575;-76
2022/05/27 04:48:13;;;;;;;22.98;6.93;;;13.50;99.90;;;;;;4949431;28;20073;-76
2022/05/27 04:50:40;;;;;;;16.92;7.03;;;13.50;99.90;;;;;;4947394;29;20024;-75
2022/05/27 04:53:06;;;;;;;25.63;8.05;;;13.50;99.90;;;;;;4951955;28;20031;-75
2022/05/27 04:55:33;;;;;;;23.02;8.05;;;13.50;99.90;;;;;;4952652;29;20027;-76
2022/05/27 04:58:02;;;;;;;27.42;8.75;;;13.50;99.90;;;;;;4949343;28;20095;-75
2022/05/27 05:00:40;;;;;;;26.52;7.68;;;13.60;99.90;;;;;;4948438;29;20027;-75
2022/05/27 05:03:05;;;;;;;22.17;7.60;;;13.60;99.90;;;;;;4951560;29;20075;-75
2022/05/27 05:05:33;;;;;;;25.02;8.70;;;13.60;99.90;;;;;;4946655;28;20023;-75
2022/05/27 05:08:17;;;;;;;21.25;7.18;;;13.70;99.90;;;;;;4950471;28;20057;-75
2022/05/27 05:10:43;;;;;;;25.63;7.90;;;13.70;99.90;;;;;;4945118;29;20026;-75
2022/05/27 05:13:08;;;;;;;18.27;6.30;;;13.80;99.90;;;;;;4946801;28;20039;-76
2022/05/27 05:15:34;;;;;;;18.40;7.07;;;14.10;99.90;;;;;;4950972;29;20046;-76
2022/05/27 05:18:00;;;;;;;18.55;5.88;;;14.30;99.90;;;;;;4949864;28;20452;-75
2022/05/27 05:20:28;;;;;;;18.05;4.45;;;14.50;99.90;;;;;;4950837;28;20461;-75
2022/05/27 05:22:54;;;;;;;18.80;4.60;;;14.60;99.90;;;;;;4946913;28;20043;-75
2022/05/27 05:25:19;;;;;;;8.77;3.58;;;14.70;99.90;;;;;;4946357;28;20063;-75
2022/05/27 05:27:45;;;;;;;12.68;3.38;;;14.90;99.90;;;;;;4952349;28;20027;-76
2022/05/27 05:30:14;;;;;;;11.57;2.15;;;15.00;99.90;;;;;;4949082;28;20065;-75
2022/05/27 05:32:40;;;;;;;14.77;3.15;;;15.10;99.90;;;;;;4947184;28;20035;-76
2022/05/27 05:35:07;;;;;;;14.85;2.97;;;15.00;99.90;;;;;;4949014;28;20379;-75
2022/05/27 05:37:33;;;;;;;15.90;3.38;;;14.90;99.90;;;;;;4950233;28;20023;-76
2022/05/27 05:39:58;;;;;;;16.02;3.75;;;14.90;99.90;;;;;;4943922;28;20087;-76
2022/05/27 05:42:24;;;;;;;12.10;3.50;;;14.80;99.90;;;;;;4948791;28;20218;-76
2022/05/27 05:44:50;;;;;;;15.10;3.00;;;14.70;99.90;;;;;;4939210;28;20082;-76
2022/05/27 05:47:15;;;;;;;12.40;2.85;;;14.70;99.90;;;;;;4945605;28;20737;-76
2022/05/27 05:49:41;;;;;;;10.85;2.83;;;14.70;99.90;;;;;;4942219;29;20039;-75
2022/05/27 05:52:07;;;;;;;10.13;2.60;;;14.70;99.90;;;;;;4944052;28;20396;-76
2022/05/27 05:54:33;;;;;;;15.50;2.63;;;14.70;99.90;;;;;;4943883;28;20031;-76
2022/05/27 05:57:03;;;;;;;10.85;2.50;;;14.60;99.90;;;;;;4941904;29;20452;-74
2022/05/27 05:59:33;;;;;;;11.85;2.30;;;14.60;99.90;;;;;;4942494;28;20035;-74
2022/05/27 06:02:00;;;;;;;11.07;2.65;;;14.60;99.90;;;;;;4941777;29;20468;-74
2022/05/27 06:04:26;;;;;;;10.23;2.95;;;14.60;99.90;;;;;;4944926;29;20074;-74
2022/05/27 06:06:51;;;;;;;9.65;2.40;;;14.60;99.90;;;;;;4940981;28;20058;-74
2022/05/27 06:09:19;;;;;;;15.15;3.63;;;14.70;99.90;;;;;;4941537;29;20035;-74
2022/05/27 06:11:44;;;;;;;12.52;2.30;;;14.70;99.90;;;;;;4942564;28;20039;-74
2022/05/27 06:14:10;;;;;;;7.45;2.40;;;14.80;99.90;;;;;;4946632;29;21652;-74
2022/05/27 06:16:36;;;;;;;11.00;2.53;;;14.80;99.90;;;;;;4942892;28;20122;-74
2022/05/27 06:19:01;;;;;;;9.60;1.92;;;14.90;99.90;;;;;;4950175;28;20062;-74
2022/05/27 06:21:27;;;;;;;14.38;2.70;;;14.90;99.90;;;;;;4950266;28;20023;-74
2022/05/27 06:23:52;;;;;;;11.15;2.08;;;15.00;99.90;;;;;;4944011;28;20039;-74
2022/05/27 06:26:18;;;;;;;9.73;1.67;;;15.00;99.90;;;;;;4952039;28;20027;-74
2022/05/27 06:34:23;;;;;;;8.55;1.65;;;14.90;99.90;;;;;;4918990;29;20043;-75
2022/05/27 06:36:50;;;;;;;7.82;0.95;;;14.90;99.90;;;;;;4941061;28;20027;-75
2022/05/27 06:39:16;;;;;;;11.20;1.05;;;14.90;99.90;;;;;;4946711;28;20054;-76
2022/05/27 06:41:42;;;;;;;8.82;1.02;;;14.90;99.90;;;;;;4947628;28;20027;-75
2022/05/27 06:44:09;;;;;;;4.30;0.77;;;14.80;99.90;;;;;;4948124;29;20035;-75
2022/05/27 06:46:36;;;;;;;4.28;0.73;;;14.70;99.90;;;;;;4917028;29;20550;-75
2022/05/27 06:49:02;;;;;;;10.25;1.17;;;14.70;99.90;;;;;;4945463;28;20116;-75
2022/05/27 06:51:28;;;;;;;7.28;1.00;;;14.80;99.90;;;;;;4920886;29;20083;-75
2022/05/27 06:53:53;;;;;;;6.57;1.13;;;14.80;99.90;;;;;;4948143;29;20420;-75
2022/05/27 06:56:21;;;;;;;9.20;0.90;;;14.90;99.90;;;;;;4950752;29;20027;-75
2022/05/27 06:58:46;;;;;;;9.13;0.70;;;14.90;99.90;;;;;;4950106;28;20031;-75
2022/05/27 07:01:12;;;;;;;4.70;0.65;;;14.90;99.90;;;;;;4949243;28;20058;-75
2022/05/27 07:03:38;;;;;;;6.82;1.02;;;14.90;99.90;;;;;;4952510;29;20042;-75
2022/05/27 07:06:10;;;;;;;5.00;0.70;;;15.00;99.90;;;;;;4949588;29;20023;-75
2022/05/27 07:08:36;;;;;;;7.90;0.93;;;15.10;99.90;;;;;;4952869;29;20561;-75
2022/05/27 07:11:03;;;;;;;8.63;1.90;;;15.20;99.90;;;;;;4954887;28;20142;-75
2022/05/27 07:13:29;;;;;;;6.38;0.60;;;15.20;99.90;;;;;;4956006;29;20028;-75
2022/05/27 07:15:55;;;;;;;7.65;0.80;;;15.30;99.90;;;;;;4953744;28;20031;-75
2022/05/27 07:18:20;;;;;;;12.02;1.13;;;15.30;99.90;;;;;;4953323;29;20028;-75
2022/05/27 07:20:46;;;;;;;6.45;0.75;;;15.20;99.90;;;;;;4953948;28;20504;-76
2022/05/27 07:23:12;;;;;;;9.98;1.00;;;15.30;99.90;;;;;;4955208;29;20035;-75
2022/05/27 07:25:38;;;;;;;8.68;0.60;;;15.40;99.90;;;;;;4955119;28;20082;-75
2022/05/27 07:28:07;;;;;;;10.35;0.80;;;15.40;99.90;;;;;;4952338;29;20578;-76
2022/05/27 07:30:37;;;;;;;9.35;0.90;;;15.50;99.90;;;;;;4955134;29;20035;-76
2022/05/27 07:33:03;;;;;;;7.00;0.98;;;15.50;99.90;;;;;;4955841;29;20031;-76
2022/05/27 07:35:28;;;;;;;8.82;0.93;;;15.60;99.90;;;;;;4942237;29;20034;-76
2022/05/27 07:37:54;;;;;;;12.45;0.95;;;15.60;99.90;;;;;;4945166;29;20448;-76
2022/05/27 07:40:20;;;;;;;7.00;0.63;;;15.60;99.90;;;;;;4947071;28;20038;-77
2022/05/27 07:42:46;;;;;;;7.88;0.73;;;15.70;99.90;;;;;;4949142;28;20071;-76
2022/05/27 07:45:13;;;;;;;9.10;0.98;;;15.60;99.90;;;;;;4941199;28;20034;-77
2022/05/27 07:47:39;;;;;;;10.98;0.93;;;15.70;99.90;;;;;;4947526;28;20039;-77
2022/05/27 07:50:05;;;;;;;8.95;1.08;;;15.70;99.90;;;;;;4946896;28;20032;-76
2022/05/27 07:52:34;;;;;;;6.88;0.93;;;15.70;99.90;;;;;;4952097;29;20039;-77
2022/05/27 07:55:00;;;;;;;9.60;1.02;;;15.80;99.90;;;;;;4947562;28;20031;-77
2022/05/27 07:57:25;;;;;;;9.35;0.70;;;15.70;99.90;;;;;;4954789;28;20497;-76
2022/05/27 07:59:59;;;;;;;7.38;0.95;;;15.70;99.90;;;;;;4943253;28;20028;-78
2022/05/27 08:02:25;;;;;;;14.43;1.52;;;15.70;99.90;;;;;;4942425;29;20559;-77
2022/05/27 08:04:52;;;;;;;10.20;1.20;;;15.70;99.90;;;;;;4946103;28;20522;-77
2022/05/27 08:07:18;;;;;;;7.95;0.85;;;15.70;99.90;;;;;;4946445;29;20035;-79
2022/05/27 08:09:43;;;;;;;4.03;0.68;;;15.70;99.90;;;;;;4942642;28;20042;-77
2022/05/27 08:12:09;;;;;;;7.45;0.95;;;15.80;99.90;;;;;;4941859;28;20020;-77
2022/05/27 08:14:35;;;;;;;13.27;1.17;;;15.80;99.90;;;;;;4946114;28;20043;-77
2022/05/27 08:17:01;;;;;;;17.17;1.70;;;15.80;99.90;;;;;;4947368;28;20028;-79
2022/05/27 08:19:27;;;;;;;12.88;1.08;;;16.00;99.90;;;;;;4946736;28;22079;-77
2022/05/27 08:21:53;;;;;;;7.00;1.02;;;16.10;99.50;;;;;;4942950;29;20035;-77
2022/05/27 08:24:18;;;;;;;7.78;0.77;;;16.20;99.40;;;;;;4946317;29;20114;-77
2022/05/27 08:26:44;;;;;;;10.48;1.00;;;16.40;99.50;;;;;;4943300;28;20031;-77
2022/05/27 08:29:10;;;;;;;5.10;0.73;;;16.50;98.90;;;;;;4947155;28;20028;-78
2022/05/27 08:31:37;;;;;;;9.20;0.70;;;16.40;98.90;;;;;;4944563;28;20551;-77
2022/05/27 08:39:33;;;;;;;10.07;0.75;;;16.60;97.90;;;;;;4945656;29;20034;-77
2022/05/27 08:42:33;;;;;;;9.50;0.75;;;16.60;97.10;;;;;;4944998;28;20467;-78
2022/05/27 08:45:10;;;;;;;6.25;0.60;;;16.60;97.30;;;;;;4946672;28;20039;-78
2022/05/27 08:47:44;;;;;;;7.43;0.73;;;16.60;97.60;;;;;;4949118;29;20403;-77
2022/05/27 08:50:15;;;;;;;7.68;0.93;;;16.60;97.50;;;;;;4945106;28;20029;-78
2022/05/27 08:52:45;;;;;;;7.37;1.13;;;16.70;97.00;;;;;;4945563;28;20059;-77
2022/05/27 09:01:41;;;;;;;9.68;1.00;;;16.90;96.30;;;;;;4938834;28;20594;-77
2022/05/27 09:04:09;;;;;;;7.50;0.85;;;17.00;96.10;;;;;;4943984;28;20050;-78
2022/05/27 09:06:48;;;;;;;7.15;0.95;;;17.20;95.80;;;;;;4948825;29;20023;-77
2022/05/27 09:09:23;;;;;;;12.32;1.00;;;17.20;95.20;;;;;;4930489;29;20031;-77
2022/05/27 09:12:25;;;;;;;6.93;1.05;;;17.10;94.50;;;;;;4947177;28;20043;-77
2022/05/27 09:15:25;;;;;;;10.45;1.52;;;17.00;94.30;;;;;;4944984;29;20030;-77
2022/05/27 09:18:18;;;;;;;8.15;1.00;;;17.00;94.80;;;;;;4942347;28;20027;-77
2022/05/27 09:21:06;;;;;;;8.25;1.27;;;17.20;94.60;;;;;;4942240;28;20038;-77
2022/05/27 09:23:42;;;;;;;6.28;0.95;;;17.30;94.60;;;;;;4947435;28;20038;-77
2022/05/27 09:26:21;;;;;;;6.22;0.60;;;17.30;93.80;;;;;;4944257;29;20042;-77
2022/05/27 09:28:59;;;;;;;7.30;1.80;;;17.30;93.70;;;;;;4944052;28;20039;-77
2022/05/27 09:31:43;;;;;;;6.00;1.02;;;17.20;92.90;;;;;;4945861;29;20034;-77
2022/05/27 09:34:11;;;;;;;8.60;1.20;;;17.00;92.80;;;;;;4926030;29;20091;-77
2022/05/27 09:36:51;;;;;;;11.70;1.33;;;17.00;92.30;;;;;;4944933;28;20039;-78
2022/05/27 09:39:20;;;;;;;9.05;1.65;;;17.00;92.80;;;;;;4939378;29;20035;-78
2022/05/27 09:41:57;;;;;;;6.10;0.93;;;17.10;93.10;;;;;;4943256;29;20113;-77
2022/05/27 09:44:30;;;;;;;8.57;0.80;;;17.30;93.00;;;;;;4943125;28;20103;-77
2022/05/27 09:46:55;;;;;;;7.20;1.10;;;17.40;93.10;;;;;;4948221;29;20098;-77
2022/05/27 09:49:21;;;;;;;5.60;1.00;;;17.40;93.20;;;;;;4950322;28;20468;-77
2022/05/27 09:51:47;;;;;;;12.27;1.25;;;17.60;92.70;;;;;;4950281;29;20436;-77
2022/05/27 09:54:36;;;;;;;13.40;2.47;;;17.60;91.90;;;;;;4943243;28;20028;-76
2022/05/27 09:57:16;;;;;;;10.25;1.17;;;17.70;91.90;;;;;;4950896;29;20027;-74
2022/05/27 09:59:53;;;;;;;10.05;0.98;;;17.70;92.10;;;;;;4940839;28;20032;-77
2022/05/27 10:02:31;;;;;;;13.20;1.33;;;17.70;92.00;;;;;;4946045;29;20050;-74
2022/05/27 10:05:22;;;;;;;9.15;1.02;;;17.60;92.10;;;;;;4950503;28;20046;-77
2022/05/27 10:07:55;;;;;;;7.30;1.27;;;17.30;91.80;;;;;;4945245;28;20082;-77
2022/05/27 10:10:29;;;;;;;9.38;1.10;;;16.90;91.60;;;;;;4948430;28;20134;-77
2022/05/27 10:13:13;;;;;;;7.95;1.17;;;16.70;92.30;;;;;;4938990;28;20094;-77
2022/05/27 10:15:39;;;;;;;10.23;0.80;;;16.80;92.40;;;;;;4943668;28;20512;-77
2022/05/27 10:18:25;;;;;;;7.60;0.98;;;17.00;91.90;;;;;;4944042;29;20103;-78
2022/05/27 10:21:01;;;;;;;10.35;1.23;;;17.00;90.30;;;;;;4938990;29;20030;-77
2022/05/27 10:23:33;;;;;;;9.27;1.10;;;16.80;90.20;;;;;;4943565;28;20043;-77
2022/05/27 10:25:59;;;;;;;7.50;1.27;;;16.80;90.70;;;;;;4927419;29;20078;-77
2022/05/27 10:28:30;;;;;;;19.02;1.63;;;16.90;90.00;;;;;;4943216;28;20031;-77
2022/05/27 10:31:00;;;;;;;8.90;1.17;;;17.00;88.00;;;;;;4940343;29;20034;-77
2022/05/27 10:33:44;;;;;;;7.68;0.90;;;16.90;87.90;;;;;;4940033;29;20756;-77
2022/05/27 10:36:38;;;;;;;8.73;1.13;;;16.90;89.40;;;;;;4944970;28;20378;-78
2022/05/27 10:39:30;;;;;;;8.48;1.08;;;16.90;90.20;;;;;;4942248;28;20034;-77
2022/05/27 10:42:32;;;;;;;9.73;1.50;;;17.00;90.60;;;;;;4947809;29;20069;-77
2022/05/27 10:45:22;;;;;;;6.20;0.63;;;17.10;90.20;;;;;;4949282;28;20298;-77
2022/05/27 10:48:06;;;;;;;6.35;0.88;;;17.20;89.20;;;;;;4945800;28;20043;-75
2022/05/27 10:50:52;;;;;;;11.23;1.00;;;17.30;89.10;;;;;;4944458;29;20031;-77
2022/05/27 10:53:32;;;;;;;10.63;1.65;;;17.30;88.70;;;;;;4947648;29;20031;-77
2022/05/27 10:56:27;;;;;;;11.07;1.13;;;17.30;88.20;;;;;;4947674;28;20118;-77
2022/05/27 11:02:04;;;;;;;9.18;1.38;;;17.10;88.00;;;;;;4946684;28;20109;-77
2022/05/27 11:05:03;;;;;;;9.38;1.83;;;17.10;86.80;;;;;;4942732;28;20027;-77
2022/05/27 11:07:59;;;;;;;8.60;0.85;;;17.10;87.30;;;;;;4942226;28;20031;-77
2022/05/27 11:10:34;;;;;;;11.13;1.00;;;17.10;86.90;;;;;;4939394;28;20035;-77
2022/05/27 11:15:46;;;;;;;9.93;1.02;;;17.30;86.90;;;;;;4946639;28;20050;-76
2022/05/27 11:18:44;;;;;;;10.95;1.00;;;17.40;85.70;;;;;;4947334;28;20106;-76
2022/05/27 11:21:39;;;;;;;9.68;0.98;;;17.40;85.50;;;;;;4934617;29;20062;-77
2022/05/27 11:24:39;;;;;;;8.48;0.88;;;17.50;85.50;;;;;;4915035;29;20054;-76
2022/05/27 11:27:23;;;;;;;6.20;0.70;;;17.60;85.30;;;;;;4936251;28;20043;-75
2022/05/27 11:30:28;;;;;;;6.78;0.93;;;17.60;85.20;;;;;;4949283;28;20122;-76
2022/05/27 11:33:15;;;;;;;9.75;1.60;;;17.70;84.10;;;;;;4898653;28;20043;-76
2022/05/27 11:36:10;;;;;;;7.53;0.80;;;17.80;83.50;;;;;;4955312;29;20027;-73
2022/05/27 11:39:21;;;;;;;8.15;1.35;;;17.90;83.80;;;;;;4956298;28;20118;-74
2022/05/27 11:42:17;;;;;;;7.70;1.15;;;18.10;83.80;;;;;;4952596;29;20038;-74
2022/05/27 11:44:53;;;;;;;8.50;0.80;;;18.20;83.60;;;;;;4952655;29;20039;-74
2022/05/27 11:47:27;;;;;;;8.00;0.88;;;18.20;83.50;;;;;;4949355;28;20116;-74
2022/05/27 11:50:11;;;;;;;8.43;1.05;;;18.00;83.80;;;;;;4952606;29;20027;-74
2022/05/27 11:53:12;;;;;;;7.38;1.13;;;17.80;83.50;;;;;;4948939;29;20032;-74
2022/05/27 11:56:22;;;;;;;10.20;1.85;;;17.60;83.60;;;;;;4955011;29;20035;-74
2022/05/27 11:59:00;;;;;;;10.10;1.40;;;17.50;84.70;;;;;;4942589;28;20054;-75
2022/05/27 12:01:36;;;;;;;8.52;0.80;;;17.40;86.60;;;;;;4941884;29;20075;-74
2022/05/27 12:04:31;;;;;;;6.75;0.95;;;17.50;86.90;;;;;;4945250;29;20042;-74
2022/05/27 12:07:11;;;;;;;7.82;1.33;;;17.70;86.90;;;;;;4904499;29;20042;-74
2022/05/27 12:10:00;;;;;;;9.00;1.00;;;17.70;86.20;;;;;;4946880;28;20059;-73
2022/05/27 12:12:33;;;;;;;13.23;1.23;;;17.80;85.20;;;;;;4946274;28;20043;-74
2022/05/27 12:15:09;;;;;;;11.70;1.40;;;17.80;85.90;;;;;;4946051;28;20026;-74
2022/05/27 12:17:45;;;;;;;11.82;1.38;;;17.80;86.60;;;;;;4945864;29;20499;-74
2022/05/27 12:20:21;;;;;;;13.45;1.55;;;17.90;86.50;;;;;;4947977;28;20031;-75
2022/05/27 12:22:50;;;;;;;9.43;1.10;;;18.10;87.00;;;;;;4944882;29;20055;-74
2022/05/27 12:25:29;;;;;;;11.52;1.13;;;18.40;84.40;;;;;;4941787;28;20039;-74
2022/05/27 12:27:56;;;;;;;7.60;1.20;;;18.40;84.20;;;;;;4944354;29;20166;-74
2022/05/27 12:30:39;;;;;;;7.95;1.00;;;18.20;84.70;;;;;;4949050;29;20396;-74
2022/05/27 12:33:06;;;;;;;8.00;1.00;;;18.10;84.10;;;;;;4946935;29;20067;-75
2022/05/27 12:35:32;;;;;;;10.55;1.10;;;17.90;84.40;;;;;;4946897;28;20561;-75
2022/05/27 12:38:09;;;;;;;7.93;1.05;;;18.00;82.50;;;;;;4941237;28;20114;-76
2022/05/27 12:40:42;;;;;;;9.55;1.30;;;18.00;81.30;;;;;;4946075;28;20035;-75
2022/05/27 12:43:21;;;;;;;9.73;1.15;;;18.00;80.50;;;;;;4946010;29;20043;-75
2022/05/27 12:46:15;;;;;;;9.05;1.10;;;18.10;80.80;;;;;;4946746;29;20031;-75
2022/05/27 12:48:43;;;;;;;7.65;0.82;;;18.20;80.40;;;;;;4907314;29;20073;-75
2022/05/27 12:51:15;;;;;;;7.25;1.05;;;18.00;79.50;;;;;;4946219;28;20038;-75
2022/05/27 12:53:47;;;;;;;6.43;0.82;;;17.80;80.00;;;;;;4943803;28;20031;-75
2022/05/27 13:02:15;;;;;;;6.25;0.60;;;17.70;76.50;;;;;;4947685;29;20066;-74
2022/05/27 13:05:00;;;;;;;7.93;0.68;;;17.70;75.70;;;;;;4943288;28;20039;-75
2022/05/27 13:07:28;;;;;;;8.57;1.02;;;17.70;74.90;;;;;;4946192;28;20085;-75
2022/05/27 13:09:55;;;;;;;8.30;1.38;;;17.80;74.00;;;;;;4926617;29;20645;-75
2022/05/27 13:12:49;;;;;;;9.02;0.90;;;17.90;73.90;;;;;;4946008;29;20711;-75
2022/05/27 13:15:28;;;;;;;5.40;0.77;;;17.90;74.20;;;;;;4944312;29;20023;-75
2022/05/27 13:18:10;;;;;;;6.88;0.60;;;17.90;74.00;;;;;;4947241;28;20031;-76
2022/05/27 13:20:55;;;;;;;13.37;0.83;;;17.90;74.70;;;;;;4940671;29;20023;-76
2022/05/27 13:23:26;;;;;;;8.63;0.50;;;18.10;74.40;;;;;;4943933;29;20067;-75
2022/05/27 13:26:07;;;;;;;5.15;0.90;;;18.10;73.90;;;;;;4943982;29;20387;-75
2022/05/27 13:28:38;;;;;;;6.97;0.65;;;18.00;72.70;;;;;;4941742;29;20377;-74
2022/05/27 13:31:11;;;;;;;5.22;0.60;;;18.00;74.10;;;;;;4929751;29;20023;-75
2022/05/27 13:34:02;;;;;;;4.22;0.60;;;18.30;74.30;;;;;;4946177;28;20039;-75
2022/05/27 13:36:38;;;;;;;9.95;1.05;;;18.60;73.70;;;;;;4946301;29;20031;-75
2022/05/27 13:39:10;;;;;;;7.63;1.13;;;18.80;72.30;;;;;;4945060;29;20102;-76
2022/05/27 13:41:41;;;;;;;9.15;0.65;;;18.70;72.60;;;;;;4947134;29;20039;-75
2022/05/27 13:44:10;;;;;;;8.90;1.02;;;18.60;72.70;;;;;;4942043;29;20043;-75
2022/05/27 13:46:40;;;;;;;5.55;0.65;;;18.40;72.40;;;;;;4943887;29;20485;-75
2022/05/27 13:49:21;;;;;;;4.95;0.60;;;18.00;72.10;;;;;;4942806;29;20035;-75
2022/05/27 13:51:48;;;;;;;8.20;0.93;;;17.70;71.50;;;;;;4941787;29;20066;-74